Time;durP1;ratioP1;P1;durP2;ratioP2;P2;SDS_P1;SDS_P2;PMS_P1;PMS_P2;Temp;Humidity;BMP_temperature;BMP_pressure;BME280_temperature;BME280_humidity;BME280_pressure;Samples;Min_cycle;Max_cycle;Signal;HPM_P1;HPM_P2
2022/11/02 00:00:16;;;;;;;7.27;6.70;;;14.60;99.90;;;;;;5034570;28;20479;-82
2022/11/02 00:02:43;;;;;;;7.33;6.73;;;14.60;99.90;;;;;;5032733;28;20486;-78
2022/11/02 00:05:14;;;;;;;6.83;6.23;;;14.50;99.90;;;;;;5034018;28;20544;-82
2022/11/02 00:07:41;;;;;;;8.37;7.67;;;14.60;99.90;;;;;;5031966;28;20471;-78
2022/11/02 00:10:10;;;;;;;8.77;7.90;;;14.50;99.90;;;;;;5032357;28;20481;-81
2022/11/02 00:12:37;;;;;;;7.30;6.63;;;14.40;99.90;;;;;;5032131;28;20472;-77
2022/11/02 00:15:05;;;;;;;8.00;7.20;;;14.50;99.90;;;;;;5034106;28;20529;-78
2022/11/02 00:17:34;;;;;;;7.80;7.00;;;14.40;99.90;;;;;;5033585;28;20476;-78
2022/11/02 00:20:02;;;;;;;9.40;7.90;;;14.40;99.90;;;;;;5033709;28;20304;-78
2022/11/02 00:22:32;;;;;;;8.57;7.77;;;14.40;99.90;;;;;;5039802;28;20514;-78
2022/11/02 00:25:05;;;;;;;7.73;7.00;;;14.40;99.90;;;;;;5053493;28;20472;-78
2022/11/02 00:27:33;;;;;;;8.90;7.03;;;14.30;99.90;;;;;;5053327;28;20463;-78
2022/11/02 00:30:02;;;;;;;7.73;7.00;;;14.30;99.90;;;;;;5052702;28;20471;-82
2022/11/02 00:32:30;;;;;;;7.90;7.10;;;14.30;99.90;;;;;;5052510;28;20463;-78
2022/11/02 00:34:59;;;;;;;8.37;7.60;;;14.30;99.90;;;;;;5053492;28;20540;-82
2022/11/02 00:37:26;;;;;;;6.53;5.90;;;14.30;99.90;;;;;;5054297;28;21015;-82
2022/11/02 00:39:54;;;;;;;7.30;6.60;;;14.30;99.90;;;;;;5053511;28;20463;-81
2022/11/02 00:42:22;;;;;;;6.83;6.33;;;14.20;99.90;;;;;;5043959;28;20533;-80
2022/11/02 00:44:49;;;;;;;8.60;7.60;;;14.20;99.90;;;;;;5039245;28;20529;-79
2022/11/02 00:47:16;;;;;;;7.07;6.43;;;14.20;99.90;;;;;;5053593;28;20862;-82
2022/11/02 00:49:46;;;;;;;7.43;6.77;;;14.20;99.90;;;;;;5051156;28;20502;-81
2022/11/02 00:52:13;;;;;;;7.87;7.13;;;14.20;99.90;;;;;;5040488;28;20472;-80
2022/11/02 00:54:40;;;;;;;8.27;7.47;;;14.10;99.90;;;;;;5043689;28;20475;-78
2022/11/02 00:57:09;;;;;;;6.73;5.90;;;14.10;99.90;;;;;;5052563;28;20919;-82
2022/11/02 00:59:36;;;;;;;19.73;8.05;;;14.10;99.90;;;;;;5044065;28;20451;-81
2022/11/02 01:02:03;;;;;;;8.07;6.32;;;14.10;99.90;;;;;;5045536;28;20312;-81
2022/11/02 01:04:30;;;;;;;9.03;6.10;;;14.00;99.90;;;;;;5042914;28;20239;-81
2022/11/02 01:07:02;;;;;;;7.72;6.40;;;14.00;99.90;;;;;;5045638;28;20492;-85
2022/11/02 01:09:30;;;;;;;6.90;6.32;;;13.90;99.90;;;;;;5044977;28;20686;-78
2022/11/02 01:11:57;;;;;;;6.78;6.07;;;14.00;99.90;;;;;;5046756;28;20289;-78
2022/11/02 01:14:26;;;;;;;8.70;7.80;;;14.00;99.90;;;;;;5043430;28;20240;-81
2022/11/02 01:16:53;;;;;;;8.83;7.83;;;13.90;99.90;;;;;;5043878;28;20259;-78
2022/11/02 01:19:20;;;;;;;7.22;6.50;;;13.90;99.90;;;;;;5042583;28;20525;-79
2022/11/02 01:21:47;;;;;;;6.75;6.15;;;13.90;99.90;;;;;;5045496;28;20228;-79
2022/11/02 01:24:14;;;;;;;7.50;6.07;;;13.90;99.90;;;;;;5040252;28;20343;-81
2022/11/02 01:26:57;;;;;;;7.03;5.70;;;13.90;99.90;;;;;;5044280;28;20483;-79
2022/11/02 01:29:25;;;;;;;5.63;5.03;;;13.80;99.90;;;;;;5042140;28;20844;-78
2022/11/02 01:31:52;;;;;;;5.50;4.97;;;13.80;99.90;;;;;;5043260;28;20221;-81
2022/11/02 01:34:20;;;;;;;7.15;6.47;;;13.80;99.90;;;;;;5043998;28;20685;-81
2022/11/02 01:36:47;;;;;;;7.78;5.80;;;13.80;99.90;;;;;;5044856;28;20220;-81
2022/11/02 01:39:15;;;;;;;5.30;4.80;;;13.80;99.90;;;;;;5046221;28;20213;-79
2022/11/02 01:41:42;;;;;;;4.78;4.28;;;13.80;99.90;;;;;;5042982;28;20245;-81
2022/11/02 01:44:32;;;;;;;4.55;4.15;;;13.70;99.90;;;;;;5043453;28;20232;-78
2022/11/02 01:47:03;;;;;;;6.30;5.18;;;13.80;99.90;;;;;;5043407;28;20961;-77
2022/11/02 01:49:35;;;;;;;5.18;4.78;;;13.70;99.90;;;;;;5031584;28;20226;-80
2022/11/02 01:52:07;;;;;;;5.53;5.10;;;13.70;99.90;;;;;;5032157;28;20304;-81
2022/11/02 01:54:40;;;;;;;6.05;4.75;;;13.70;99.90;;;;;;5023374;28;20570;-81
2022/11/02 01:57:10;;;;;;;6.47;4.45;;;13.70;99.90;;;;;;5040505;28;20255;-81
2022/11/02 01:59:44;;;;;;;4.47;4.07;;;13.70;99.90;;;;;;5042856;28;20244;-77
2022/11/02 02:02:17;;;;;;;4.85;4.45;;;13.60;99.90;;;;;;5034877;28;20221;-77
2022/11/02 02:04:45;;;;;;;4.80;4.40;;;13.60;99.90;;;;;;5043647;28;20221;-80
2022/11/02 02:07:13;;;;;;;3.70;3.40;;;13.60;99.90;;;;;;5043696;28;20300;-78
2022/11/02 02:09:41;;;;;;;5.88;3.67;;;13.60;99.90;;;;;;5042832;28;20677;-79
2022/11/02 02:12:12;;;;;;;4.43;4.03;;;13.50;99.90;;;;;;5045531;28;20244;-81
2022/11/02 02:14:41;;;;;;;4.70;3.60;;;13.50;99.90;;;;;;5042889;28;20650;-80
2022/11/02 02:17:26;;;;;;;4.00;3.70;;;13.50;99.90;;;;;;5043551;28;20225;-79
2022/11/02 02:23:52;;;;;;;6.30;4.25;;;13.50;99.90;;;;;;4950750;28;20240;-79
2022/11/02 02:26:56;;;;;;;6.13;4.18;;;13.40;99.90;;;;;;5021390;28;20575;-79
2022/11/02 02:29:27;;;;;;;4.63;4.13;;;13.40;99.90;;;;;;5023232;28;20220;-78
2022/11/02 02:31:59;;;;;;;4.55;4.15;;;13.40;99.90;;;;;;5034501;28;20229;-80
2022/11/02 02:34:34;;;;;;;6.25;4.13;;;13.30;99.90;;;;;;5034949;28;20225;-78
2022/11/02 02:37:05;;;;;;;5.43;3.55;;;13.30;99.90;;;;;;5036161;28;20539;-80
2022/11/02 02:39:39;;;;;;;3.80;3.30;;;13.40;99.90;;;;;;5070645;28;20305;-81
2022/11/02 02:42:12;;;;;;;3.70;3.30;;;13.40;99.90;;;;;;5072642;28;20253;-81
2022/11/02 02:44:47;;;;;;;9.02;3.35;;;13.30;99.90;;;;;;5059708;28;20217;-81
2022/11/02 02:47:20;;;;;;;5.13;4.30;;;13.30;99.90;;;;;;5056830;28;20254;-78
2022/11/02 02:49:51;;;;;;;11.10;3.58;;;13.30;99.90;;;;;;5066335;28;20217;-78
2022/11/02 02:52:19;;;;;;;3.65;2.85;;;13.30;99.90;;;;;;5040175;28;20230;-81
2022/11/02 02:54:49;;;;;;;5.25;3.60;;;13.30;99.90;;;;;;5043251;28;20229;-79
2022/11/02 02:57:20;;;;;;;4.30;3.30;;;13.30;99.90;;;;;;5052585;28;20864;-78
2022/11/02 02:59:49;;;;;;;3.42;3.13;;;13.30;99.90;;;;;;5040413;28;20236;-81
2022/11/02 03:02:20;;;;;;;4.03;2.78;;;13.30;99.90;;;;;;5047297;28;20308;-78
2022/11/02 03:04:47;;;;;;;3.28;2.63;;;13.30;99.90;;;;;;5046991;28;20251;-78
2022/11/02 03:07:24;;;;;;;3.72;2.75;;;13.30;99.90;;;;;;5047581;28;20240;-81
2022/11/02 03:10:01;;;;;;;4.60;3.33;;;13.30;99.90;;;;;;5049683;28;20701;-78
2022/11/02 03:12:39;;;;;;;3.53;2.88;;;13.20;99.90;;;;;;5041570;28;20307;-78
2022/11/02 03:15:13;;;;;;;3.88;3.47;;;13.20;99.90;;;;;;5053162;28;20285;-78
2022/11/02 03:17:48;;;;;;;3.60;3.30;;;13.20;99.90;;;;;;5054527;28;20220;-78
2022/11/02 03:20:23;;;;;;;3.00;2.70;;;13.20;99.90;;;;;;5043511;28;20315;-78
2022/11/02 03:23:00;;;;;;;5.05;3.10;;;13.20;99.90;;;;;;5054020;28;20236;-78
2022/11/02 03:25:30;;;;;;;4.70;2.45;;;13.10;99.90;;;;;;5054486;28;20316;-78
2022/11/02 03:28:08;;;;;;;4.63;3.33;;;13.10;99.90;;;;;;5054606;28;20228;-81
2022/11/02 03:30:42;;;;;;;4.85;3.17;;;13.10;99.90;;;;;;5054417;28;20482;-81
2022/11/02 03:33:18;;;;;;;5.03;3.95;;;13.00;99.90;;;;;;5047289;28;20262;-81
2022/11/02 03:35:52;;;;;;;4.15;2.40;;;13.00;99.90;;;;;;5054096;28;20224;-81
2022/11/02 03:38:22;;;;;;;4.00;2.75;;;13.00;99.90;;;;;;5046130;28;20234;-78
2022/11/02 03:40:53;;;;;;;3.30;3.00;;;13.00;99.90;;;;;;5053927;28;20300;-78
2022/11/02 03:43:21;;;;;;;2.85;2.65;;;13.00;99.90;;;;;;5054830;28;20240;-78
2022/11/02 03:45:54;;;;;;;4.28;3.00;;;13.00;99.90;;;;;;5053847;28;20323;-78
2022/11/02 03:48:22;;;;;;;4.78;2.95;;;13.00;99.90;;;;;;5054444;28;20228;-78
2022/11/02 03:50:52;;;;;;;3.38;2.60;;;13.00;99.90;;;;;;5054743;28;20232;-78
2022/11/02 03:53:25;;;;;;;4.82;2.65;;;12.90;99.90;;;;;;5053851;28;20286;-78
2022/11/02 03:55:55;;;;;;;4.47;3.55;;;12.90;99.90;;;;;;5053458;28;20670;-79
2022/11/02 03:58:22;;;;;;;3.88;2.08;;;12.90;99.90;;;;;;5054526;28;20307;-79
2022/11/02 04:00:57;;;;;;;4.15;3.10;;;12.90;99.90;;;;;;5054234;28;20237;-77
2022/11/02 04:03:25;;;;;;;6.05;2.33;;;12.90;99.90;;;;;;5054790;28;20231;-77
2022/11/02 04:05:51;;;;;;;3.75;2.55;;;12.80;99.90;;;;;;5054687;28;20254;-77
2022/11/02 04:08:36;;;;;;;3.85;2.17;;;12.80;99.90;;;;;;5045140;28;20224;-77
2022/11/02 04:19:26;;;;;;;3.55;3.25;;;12.70;99.90;;;;;;5053670;28;20224;-78
2022/11/02 04:19:38;;;;;;;4.95;2.63;;;12.70;99.90;;;;;;5053727;28;20327;-78
2022/11/02 04:27:37;;;;;;;5.28;2.83;;;12.70;99.90;;;;;;5054484;28;20236;-78
2022/11/02 04:30:05;;;;;;;4.35;2.88;;;12.60;99.90;;;;;;5054004;28;20217;-78
2022/11/02 04:35:23;;;;;;;5.45;2.55;;;12.60;99.90;;;;;;5054158;28;20235;-79
2022/11/02 04:40:34;;;;;;;4.85;2.70;;;12.60;99.90;;;;;;5052761;28;20286;-79
2022/11/02 04:43:01;;;;;;;7.40;2.55;;;12.60;99.90;;;;;;5056389;28;20232;-81
2022/11/02 04:45:28;;;;;;;5.53;3.40;;;12.50;99.90;;;;;;5061062;28;20233;-81
2022/11/02 04:48:01;;;;;;;6.85;2.95;;;12.50;99.90;;;;;;5063058;28;20304;-81
2022/11/02 04:50:28;;;;;;;4.97;3.05;;;12.50;99.90;;;;;;5057897;28;20275;-81
2022/11/02 04:52:58;;;;;;;4.25;2.75;;;12.50;99.90;;;;;;5053804;28;20236;-81
2022/11/02 04:55:25;;;;;;;3.10;2.30;;;12.50;99.90;;;;;;5052736;28;20399;-81
2022/11/02 04:57:52;;;;;;;4.75;2.70;;;12.50;99.90;;;;;;5053496;28;20228;-81
2022/11/02 05:00:22;;;;;;;5.50;2.90;;;12.50;99.90;;;;;;5053040;28;20231;-81
2022/11/02 05:02:51;;;;;;;3.28;2.97;;;12.50;99.90;;;;;;5053009;28;20221;-78
2022/11/02 05:05:19;;;;;;;6.63;2.33;;;12.50;99.90;;;;;;5053389;28;20324;-79
2022/11/02 05:07:46;;;;;;;3.72;2.08;;;12.40;99.90;;;;;;5052822;28;20229;-78
2022/11/02 05:10:13;;;;;;;3.08;2.38;;;12.40;99.90;;;;;;5053459;28;20224;-78
2022/11/02 05:12:43;;;;;;;2.97;2.42;;;12.40;99.90;;;;;;5052660;28;20298;-78
2022/11/02 05:15:11;;;;;;;4.47;2.22;;;12.40;99.90;;;;;;5053500;28;20224;-81
2022/11/02 05:17:38;;;;;;;4.40;1.90;;;12.40;99.90;;;;;;5052269;28;20255;-79
2022/11/02 05:20:07;;;;;;;7.97;2.28;;;12.40;99.90;;;;;;5053171;28;20311;-78
2022/11/02 05:22:35;;;;;;;3.25;2.08;;;12.40;99.90;;;;;;5052826;28;20228;-78
2022/11/02 05:25:03;;;;;;;5.65;2.65;;;12.40;99.90;;;;;;5052973;28;20244;-80
2022/11/02 05:27:29;;;;;;;7.28;2.58;;;12.40;99.90;;;;;;5052971;28;20262;-80
2022/11/02 05:30:00;;;;;;;4.35;2.40;;;12.40;99.90;;;;;;5053361;28;20282;-80
2022/11/02 05:32:28;;;;;;;6.07;2.92;;;12.40;99.90;;;;;;5053233;28;20675;-80
2022/11/02 05:34:56;;;;;;;4.18;3.25;;;12.40;99.90;;;;;;5053129;28;20227;-78
2022/11/02 05:37:23;;;;;;;5.78;2.80;;;12.40;99.90;;;;;;5053174;28;20225;-81
2022/11/02 05:39:52;;;;;;;8.70;2.67;;;12.40;99.90;;;;;;5052812;28;20685;-81
2022/11/02 05:42:24;;;;;;;5.03;2.22;;;12.40;99.90;;;;;;5052446;28;20244;-80
2022/11/02 05:44:51;;;;;;;11.55;3.33;;;12.40;99.90;;;;;;5052697;28;20216;-81
2022/11/02 05:47:23;;;;;;;3.10;1.95;;;12.40;99.90;;;;;;5052897;28;20294;-81
2022/11/02 05:49:50;;;;;;;4.05;2.58;;;12.40;99.90;;;;;;5052617;28;20220;-81
2022/11/02 05:53:23;;;;;;;5.90;2.45;;;12.40;99.90;;;;;;5043767;28;20311;-81
2022/11/02 05:55:52;;;;;;;6.05;2.10;;;12.40;99.90;;;;;;4992843;28;20226;-79
2022/11/02 05:58:19;;;;;;;3.72;2.20;;;12.40;99.90;;;;;;5010413;28;20316;-81
2022/11/02 06:00:46;;;;;;;4.72;2.80;;;12.40;99.90;;;;;;5030074;28;20232;-81
2022/11/02 06:03:13;;;;;;;3.50;1.77;;;12.40;99.90;;;;;;5052407;28;20670;-81
2022/11/02 06:05:40;;;;;;;2.92;2.38;;;12.40;99.90;;;;;;5052913;28;20325;-81
2022/11/02 06:08:07;;;;;;;6.35;2.25;;;12.40;99.90;;;;;;5052858;28;20307;-81
2022/11/02 06:10:34;;;;;;;10.88;4.55;;;12.30;99.90;;;;;;5054507;28;20292;-81
2022/11/02 06:13:04;;;;;;;3.03;2.20;;;12.30;99.90;;;;;;5057373;28;20358;-79
2022/11/02 06:15:32;;;;;;;7.80;4.30;;;12.30;99.90;;;;;;5056294;28;20252;-79
2022/11/02 06:18:00;;;;;;;9.52;3.85;;;12.40;99.90;;;;;;5057250;28;20283;-81
2022/11/02 06:20:27;;;;;;;4.82;2.75;;;12.40;99.90;;;;;;5056901;28;20297;-80
2022/11/02 06:22:55;;;;;;;7.70;3.30;;;12.40;99.90;;;;;;5056392;28;20224;-78
2022/11/02 06:25:22;;;;;;;5.72;3.10;;;12.40;99.90;;;;;;5056131;28;20311;-78
2022/11/02 06:31:29;;;;;;;11.20;4.93;;;12.30;99.90;;;;;;5032948;28;20271;-78
2022/11/02 06:33:56;;;;;;;7.35;3.60;;;12.30;99.90;;;;;;5036231;28;20239;-79
2022/11/02 06:36:24;;;;;;;13.27;4.68;;;12.30;99.90;;;;;;5035356;28;20280;-78
2022/11/02 06:38:51;;;;;;;14.57;4.03;;;12.40;99.90;;;;;;5036317;28;20229;-79
2022/11/02 06:41:18;;;;;;;6.05;4.13;;;12.30;99.90;;;;;;5035799;28;20259;-81
2022/11/02 06:43:45;;;;;;;6.40;3.60;;;12.40;99.90;;;;;;5035906;28;20235;-80
2022/11/02 06:46:12;;;;;;;4.60;2.92;;;12.30;99.90;;;;;;5034923;28;20233;-79
2022/11/02 06:48:41;;;;;;;7.22;3.65;;;12.40;99.90;;;;;;5036643;28;20531;-80
2022/11/02 06:51:09;;;;;;;6.70;2.72;;;12.30;99.90;;;;;;5035370;28;20230;-79
2022/11/02 06:53:35;;;;;;;6.30;2.80;;;12.30;99.90;;;;;;5035784;28;20240;-81
2022/11/02 06:56:03;;;;;;;7.30;2.80;;;12.40;99.90;;;;;;5035411;28;20312;-79
2022/11/02 06:58:31;;;;;;;8.73;3.60;;;12.30;99.90;;;;;;5047057;28;20236;-79
2022/11/02 07:00:59;;;;;;;6.45;2.72;;;12.40;99.90;;;;;;5054783;28;20225;-78
2022/11/02 07:03:27;;;;;;;7.07;3.70;;;12.40;99.90;;;;;;5055063;28;20935;-78
2022/11/02 07:06:00;;;;;;;4.35;2.38;;;12.40;99.90;;;;;;5055367;28;20236;-78
2022/11/02 07:08:28;;;;;;;5.13;2.97;;;12.40;99.90;;;;;;5055175;28;20232;-78
2022/11/02 07:10:55;;;;;;;11.88;4.75;;;12.40;99.90;;;;;;5056121;28;20624;-78
2022/11/02 07:13:22;;;;;;;7.10;4.60;;;12.50;99.90;;;;;;5055283;28;20224;-78
2022/11/02 07:15:55;;;;;;;7.18;4.47;;;12.50;99.90;;;;;;5055747;28;20561;-81
2022/11/02 07:18:22;;;;;;;11.30;5.70;;;12.50;99.90;;;;;;5054624;28;20228;-82
2022/11/02 07:20:50;;;;;;;6.15;4.63;;;12.50;99.90;;;;;;5056055;28;20236;-80
2022/11/02 07:23:24;;;;;;;9.02;3.92;;;12.50;99.90;;;;;;5053808;28;20236;-80
2022/11/02 07:25:51;;;;;;;7.18;4.28;;;12.50;99.90;;;;;;5055590;28;20234;-82
2022/11/02 07:28:22;;;;;;;9.02;4.88;;;12.60;99.90;;;;;;5055380;28;20239;-78
2022/11/02 07:30:49;;;;;;;6.72;3.75;;;12.60;99.90;;;;;;5054617;28;20221;-81
2022/11/02 07:33:24;;;;;;;4.97;3.50;;;12.60;99.90;;;;;;5055357;28;20225;-81
2022/11/02 07:35:51;;;;;;;13.07;3.13;;;12.60;99.90;;;;;;5055415;28;20224;-81
2022/11/02 07:38:22;;;;;;;7.15;3.33;;;12.60;99.90;;;;;;5054033;28;20294;-80
2022/11/02 07:40:51;;;;;;;6.95;2.78;;;12.60;99.90;;;;;;5054639;28;20559;-78
2022/11/02 07:43:18;;;;;;;8.48;2.20;;;12.70;99.90;;;;;;5054393;28;20233;-78
2022/11/02 07:45:45;;;;;;;5.40;2.60;;;12.70;99.90;;;;;;5055240;28;20252;-81
2022/11/02 07:48:12;;;;;;;3.78;2.22;;;12.70;99.90;;;;;;5055166;28;20714;-78
2022/11/02 07:50:40;;;;;;;6.25;2.78;;;12.80;99.90;;;;;;5044431;28;20652;-78
2022/11/02 07:53:07;;;;;;;4.88;2.40;;;12.80;99.90;;;;;;5053766;28;20233;-78
2022/11/02 07:55:36;;;;;;;6.00;2.50;;;12.80;99.90;;;;;;5043260;28;20225;-79
2022/11/02 07:58:06;;;;;;;4.18;2.90;;;12.90;99.90;;;;;;5045730;28;20225;-78
2022/11/02 08:00:36;;;;;;;8.75;2.35;;;13.00;99.90;;;;;;5054351;28;20251;-78
2022/11/02 08:03:05;;;;;;;11.07;3.47;;;13.10;99.90;;;;;;5054241;28;20294;-82
2022/11/02 08:05:34;;;;;;;7.28;2.25;;;13.10;99.90;;;;;;5054809;28;20241;-81
2022/11/02 08:08:03;;;;;;;7.53;2.08;;;13.20;99.90;;;;;;5055223;28;20429;-80
2022/11/02 08:10:35;;;;;;;6.95;2.28;;;13.30;99.90;;;;;;5053454;28;20722;-81
2022/11/02 08:13:04;;;;;;;2.85;2.00;;;13.40;99.90;;;;;;5054821;28;20251;-78
2022/11/02 08:15:31;;;;;;;9.48;2.53;;;13.40;99.90;;;;;;5053522;28;20225;-79
2022/11/02 08:18:02;;;;;;;8.32;2.90;;;13.40;99.90;;;;;;5054152;28;20292;-78
2022/11/02 08:20:30;;;;;;;10.80;2.38;;;13.50;99.90;;;;;;5053382;28;20303;-79
2022/11/02 08:22:57;;;;;;;11.55;2.25;;;13.50;99.90;;;;;;5054111;28;20229;-81
2022/11/02 08:25:24;;;;;;;4.43;2.80;;;13.50;99.90;;;;;;5053247;28;20240;-78
2022/11/02 08:27:57;;;;;;;6.07;4.30;;;13.50;99.90;;;;;;5053669;28;20217;-79
2022/11/02 08:30:26;;;;;;;7.60;3.77;;;13.60;99.90;;;;;;5054798;28;20219;-79
2022/11/02 08:32:53;;;;;;;5.37;2.70;;;13.70;99.90;;;;;;5052779;28;20465;-79
2022/11/02 08:35:20;;;;;;;5.47;3.15;;;13.80;99.90;;;;;;5053111;28;20983;-82
2022/11/02 08:37:53;;;;;;;7.47;3.53;;;13.80;99.90;;;;;;5053181;28;20252;-82
2022/11/02 08:40:25;;;;;;;5.60;4.00;;;13.80;99.90;;;;;;5054706;28;20474;-81
2022/11/02 08:42:56;;;;;;;7.73;4.57;;;13.80;99.90;;;;;;5052983;28;20475;-82
2022/11/02 08:45:25;;;;;;;14.52;6.90;;;13.80;99.90;;;;;;5054147;28;20463;-81
2022/11/02 08:47:52;;;;;;;5.47;4.23;;;13.80;99.90;;;;;;5052499;28;20231;-82
2022/11/02 08:50:19;;;;;;;7.40;5.03;;;13.90;99.90;;;;;;5053767;28;20494;-83
2022/11/02 08:52:46;;;;;;;5.50;4.47;;;14.00;99.90;;;;;;5052717;28;20264;-82
2022/11/02 08:55:21;;;;;;;5.00;3.47;;;14.00;99.90;;;;;;5131091;27;20562;-79
2022/11/02 08:57:50;;;;;;;7.70;3.77;;;14.00;99.90;;;;;;5131319;27;20535;-80
2022/11/02 09:00:18;;;;;;;5.00;2.72;;;14.00;99.90;;;;;;5131331;27;20471;-80
2022/11/02 09:02:45;;;;;;;6.03;3.20;;;14.00;99.90;;;;;;5141779;27;20249;-80
2022/11/02 09:05:12;;;;;;;8.73;3.33;;;14.00;99.90;;;;;;5151592;27;20582;-82
2022/11/02 09:07:39;;;;;;;6.68;3.30;;;14.10;99.90;;;;;;5151294;27;20463;-81
2022/11/02 09:10:08;;;;;;;7.35;3.20;;;14.10;99.90;;;;;;5143221;27;20727;-80
2022/11/02 09:12:36;;;;;;;4.50;2.60;;;14.10;99.90;;;;;;5174943;27;20226;-80
2022/11/02 09:15:03;;;;;;;7.10;2.80;;;14.10;99.90;;;;;;5150850;27;20225;-80
2022/11/02 09:17:30;;;;;;;6.70;2.75;;;14.10;99.90;;;;;;5159960;27;20492;-79
2022/11/02 09:19:57;;;;;;;7.15;2.53;;;14.20;99.90;;;;;;5153943;27;20605;-79
2022/11/02 09:22:25;;;;;;;6.63;3.47;;;14.20;99.90;;;;;;5151478;27;20228;-80
2022/11/02 09:24:55;;;;;;;6.17;2.90;;;14.20;99.90;;;;;;5161159;27;20598;-80
2022/11/02 09:27:22;;;;;;;7.23;2.97;;;14.20;99.90;;;;;;5164600;27;20530;-80
2022/11/02 09:29:50;;;;;;;7.43;2.40;;;14.20;99.90;;;;;;5151637;27;20462;-77
2022/11/02 09:32:23;;;;;;;6.20;2.20;;;14.30;99.90;;;;;;5151463;27;20459;-79
2022/11/02 09:34:51;;;;;;;12.23;5.50;;;14.30;99.90;;;;;;5150154;27;20467;-78
2022/11/02 09:37:19;;;;;;;6.40;3.93;;;14.40;99.90;;;;;;5152075;27;20467;-79
2022/11/02 09:39:46;;;;;;;5.00;2.70;;;14.40;99.90;;;;;;5150135;27;20471;-77
2022/11/02 09:42:21;;;;;;;4.60;2.20;;;14.50;99.90;;;;;;5152190;27;20470;-78
2022/11/02 09:44:54;;;;;;;3.60;2.10;;;14.60;99.90;;;;;;5151366;27;20546;-81
2022/11/02 09:47:23;;;;;;;5.70;2.57;;;14.60;99.90;;;;;;5151843;27;20550;-78
2022/11/02 09:49:51;;;;;;;6.10;1.93;;;14.60;99.90;;;;;;5150971;27;20534;-77
2022/11/02 09:52:24;;;;;;;4.63;2.10;;;14.70;99.90;;;;;;5150712;27;20467;-78
2022/11/02 09:54:55;;;;;;;6.73;2.80;;;14.80;99.90;;;;;;5149975;27;20466;-78
2022/11/02 09:57:28;;;;;;;3.17;2.30;;;14.80;99.90;;;;;;5151460;27;20467;-77
2022/11/02 09:59:56;;;;;;;9.30;2.57;;;14.90;99.90;;;;;;5150509;27;20519;-77
2022/11/02 10:02:36;;;;;;;4.30;3.60;;;15.00;99.90;;;;;;5150602;27;20480;-77
2022/11/02 10:05:21;;;;;;;4.90;2.97;;;15.00;99.90;;;;;;5145873;27;20538;-77
2022/11/02 10:08:04;;;;;;;4.30;3.10;;;15.10;99.90;;;;;;5136437;27;20492;-77
2022/11/02 10:10:36;;;;;;;3.90;2.50;;;15.10;99.90;;;;;;5136520;27;20463;-76
2022/11/02 10:13:17;;;;;;;3.97;2.50;;;15.20;99.90;;;;;;5136061;27;20558;-77
2022/11/02 10:15:50;;;;;;;5.63;2.97;;;15.30;99.90;;;;;;5135714;27;20463;-77
2022/11/02 10:18:21;;;;;;;6.87;3.17;;;15.40;99.90;;;;;;5134969;27;20460;-77
2022/11/02 10:20:51;;;;;;;4.30;2.70;;;15.40;99.90;;;;;;5136143;27;20491;-77
2022/11/02 10:23:25;;;;;;;9.60;3.13;;;15.40;99.90;;;;;;5135168;27;20810;-76
2022/11/02 10:25:52;;;;;;;8.50;2.77;;;15.50;99.90;;;;;;5136140;27;20470;-78
2022/11/02 10:28:24;;;;;;;5.53;2.40;;;15.50;99.90;;;;;;5133005;27;20447;-77
2022/11/02 10:30:54;;;;;;;6.63;2.23;;;15.60;99.90;;;;;;5126844;27;20463;-77
2022/11/02 10:33:28;;;;;;;3.53;2.07;;;15.60;99.90;;;;;;5136165;27;20460;-77
2022/11/02 10:36:10;;;;;;;7.00;3.17;;;15.60;99.90;;;;;;5136049;27;20485;-77
2022/11/02 10:38:47;;;;;;;5.57;1.80;;;15.70;99.90;;;;;;5136526;27;20734;-77
2022/11/02 10:41:27;;;;;;;4.97;2.17;;;15.70;99.90;;;;;;5141471;27;20608;-77
2022/11/02 10:44:19;;;;;;;1.77;1.60;;;15.80;99.90;;;;;;5150130;27;20835;-78
2022/11/02 10:47:08;;;;;;;3.23;2.07;;;15.80;99.90;;;;;;5135658;27;20972;-78
2022/11/02 10:50:01;;;;;;;3.83;2.37;;;15.90;99.90;;;;;;5135637;27;20459;-78
2022/11/02 10:52:34;;;;;;;10.93;2.80;;;15.90;99.90;;;;;;5122867;27;20485;-76
2022/11/02 10:55:03;;;;;;;7.30;3.00;;;15.90;99.90;;;;;;5135073;27;20539;-77
2022/11/02 10:57:32;;;;;;;4.90;2.80;;;15.90;99.90;;;;;;5134942;27;20566;-76
2022/11/02 11:00:29;;;;;;;5.23;3.67;;;16.00;99.90;;;;;;5134266;27;20502;-77
2022/11/02 11:03:06;;;;;;;4.73;3.43;;;16.00;99.90;;;;;;5134019;27;20806;-77
2022/11/02 11:05:35;;;;;;;4.50;2.93;;;16.10;99.90;;;;;;5135801;27;20484;-76
2022/11/02 11:08:03;;;;;;;4.80;2.40;;;16.10;99.90;;;;;;5135217;27;20805;-78
2022/11/02 11:10:37;;;;;;;3.43;2.70;;;16.10;99.90;;;;;;5136142;27;20539;-78
2022/11/02 11:13:19;;;;;;;2.50;2.20;;;16.20;99.90;;;;;;5135413;27;20986;-78
2022/11/02 11:15:54;;;;;;;3.90;2.60;;;16.20;99.90;;;;;;5135295;27;20467;-78
2022/11/02 11:18:22;;;;;;;5.30;2.53;;;16.30;99.90;;;;;;5128588;27;20469;-78
2022/11/02 11:20:55;;;;;;;5.00;2.97;;;16.30;99.90;;;;;;5125634;27;20511;-78
2022/11/02 11:26:43;;;;;;;7.07;2.80;;;16.40;99.90;;;;;;4970146;28;20512;-78
2022/11/02 11:29:23;;;;;;;5.87;2.00;;;16.50;99.90;;;;;;5108696;27;20972;-77
2022/11/02 11:31:57;;;;;;;11.23;3.57;;;16.50;99.90;;;;;;5105293;27;20479;-77
2022/11/02 11:34:28;;;;;;;5.00;2.23;;;16.50;99.90;;;;;;5128840;27;20456;-78
2022/11/02 11:37:07;;;;;;;5.03;2.53;;;16.60;99.90;;;;;;5130955;27;20999;-78
2022/11/02 11:39:38;;;;;;;4.90;2.10;;;16.60;99.90;;;;;;5127815;27;21007;-78
2022/11/02 11:42:17;;;;;;;4.10;2.63;;;16.60;99.90;;;;;;5158132;27;20495;-78
2022/11/02 11:44:46;;;;;;;5.80;2.30;;;16.70;99.90;;;;;;5146372;27;20482;-76
2022/11/02 11:47:14;;;;;;;6.60;2.23;;;16.70;99.90;;;;;;5123379;27;20990;-76
2022/11/02 11:49:48;;;;;;;3.20;2.07;;;16.70;99.90;;;;;;5118086;27;20468;-78
2022/11/02 11:52:21;;;;;;;4.93;3.30;;;16.70;99.90;;;;;;5131107;27;20557;-79
2022/11/02 11:54:56;;;;;;;4.83;2.10;;;16.80;99.90;;;;;;5126955;27;20502;-77
2022/11/02 11:57:28;;;;;;;3.77;2.20;;;16.80;99.90;;;;;;5116472;27;20536;-80
2022/11/02 11:59:57;;;;;;;4.33;2.20;;;16.80;99.90;;;;;;5129995;27;20878;-77
2022/11/02 12:02:30;;;;;;;2.30;1.60;;;16.80;99.90;;;;;;5121637;27;20455;-79
2022/11/02 12:05:11;;;;;;;3.80;1.90;;;16.90;99.90;;;;;;5116137;27;20536;-77
2022/11/02 12:08:15;;;;;;;3.47;1.93;;;16.90;99.90;;;;;;5145208;27;20488;-79
2022/11/02 12:10:59;;;;;;;6.70;2.00;;;16.90;99.90;;;;;;5122053;27;20472;-77
2022/11/02 12:13:59;;;;;;;3.60;2.10;;;16.90;99.90;;;;;;5148028;27;20564;-77
2022/11/02 12:16:35;;;;;;;4.17;2.40;;;16.90;99.90;;;;;;5138377;27;21198;-77
2022/11/02 12:19:19;;;;;;;4.93;2.97;;;16.90;99.90;;;;;;5111266;27;21129;-77
2022/11/02 12:21:55;;;;;;;3.90;3.00;;;16.90;99.90;;;;;;5103047;27;20543;-76
2022/11/02 12:24:51;;;;;;;13.90;3.53;;;16.80;99.90;;;;;;5132152;27;20504;-77
2022/11/02 12:27:34;;;;;;;7.37;3.40;;;16.80;99.90;;;;;;5132547;27;20485;-77
2022/11/02 12:33:38;;;;;;;4.10;2.13;;;16.70;99.90;;;;;;5112488;27;20501;-78
2022/11/02 12:36:19;;;;;;;5.13;2.40;;;16.70;99.90;;;;;;5133099;27;20506;-77
2022/11/02 12:39:06;;;;;;;6.50;2.53;;;16.70;99.90;;;;;;5128408;27;20578;-78
2022/11/02 12:42:03;;;;;;;3.87;1.63;;;16.70;99.90;;;;;;5122250;27;20469;-78
2022/11/02 12:44:51;;;;;;;5.50;2.30;;;16.80;99.90;;;;;;5125728;27;20530;-76
2022/11/02 12:47:34;;;;;;;2.43;2.10;;;16.80;99.90;;;;;;5113179;27;20463;-76
2022/11/02 12:50:12;;;;;;;5.53;2.47;;;16.80;99.90;;;;;;5103742;27;20502;-77
2022/11/02 12:52:50;;;;;;;5.80;3.20;;;16.80;99.90;;;;;;5113169;27;20535;-78
2022/11/02 12:55:50;;;;;;;6.80;2.30;;;16.90;99.90;;;;;;5116518;27;20481;-76
2022/11/02 12:58:22;;;;;;;4.53;2.27;;;16.90;99.90;;;;;;5132108;27;20499;-76
2022/11/02 13:00:55;;;;;;;3.17;2.63;;;16.90;99.90;;;;;;5122093;27;20802;-76
2022/11/02 13:03:35;;;;;;;2.10;1.73;;;16.90;99.90;;;;;;5113218;27;20619;-79
2022/11/02 13:06:11;;;;;;;5.70;2.97;;;16.90;99.90;;;;;;5128921;27;20465;-79
2022/11/02 13:08:44;;;;;;;4.60;2.33;;;16.90;99.90;;;;;;5114610;27;20476;-80
2022/11/02 13:11:21;;;;;;;3.00;1.87;;;16.90;99.90;;;;;;5121614;27;21012;-80
2022/11/02 13:13:55;;;;;;;5.20;2.20;;;16.80;99.90;;;;;;5117047;27;20497;-79
2022/11/02 13:16:30;;;;;;;2.07;1.60;;;16.80;99.80;;;;;;5119115;27;20462;-78
2022/11/02 13:19:01;;;;;;;3.03;1.93;;;16.80;99.60;;;;;;5112775;27;20841;-76
2022/11/02 13:21:34;;;;;;;6.30;3.17;;;16.80;99.50;;;;;;5129155;27;20473;-76
2022/11/02 13:24:04;;;;;;;5.27;3.20;;;16.80;99.80;;;;;;5109035;27;20950;-78
2022/11/02 13:26:36;;;;;;;2.90;2.17;;;16.80;98.90;;;;;;5149603;27;20476;-78
2022/11/02 13:29:13;;;;;;;6.03;3.37;;;16.80;98.80;;;;;;5130170;27;20545;-80
2022/11/02 13:31:44;;;;;;;5.83;2.77;;;16.80;98.60;;;;;;5126587;27;20854;-77
2022/11/02 13:34:17;;;;;;;2.97;2.00;;;16.80;98.40;;;;;;5113546;27;20462;-81
2022/11/02 13:36:45;;;;;;;5.03;2.10;;;16.80;98.50;;;;;;5132445;27;20466;-78
2022/11/02 13:39:18;;;;;;;3.33;2.90;;;16.80;98.40;;;;;;5132182;27;20836;-77